sensor_id;sensor_type;location;lat;lon;timestamp;P1;durP1;ratioP1;P2;durP2;ratioP2
36497;SDS011;22513;51.222;6.480;2022-07-29T00:00:37;3.53;;;1.45;;
36497;SDS011;22513;51.222;6.480;2022-07-29T00:03:03;5.45;;;1.80;;
36497;SDS011;22513;51.222;6.480;2022-07-29T00:05:28;4.13;;;2.28;;
36497;SDS011;22513;51.222;6.480;2022-07-29T00:07:54;3.08;;;1.52;;
36497;SDS011;22513;51.222;6.480;2022-07-29T00:10:20;4.25;;;1.50;;
36497;SDS011;22513;51.222;6.480;2022-07-29T00:12:46;4.10;;;1.98;;
36497;SDS011;22513;51.222;6.480;2022-07-29T00:15:11;3.97;;;1.58;;
36497;SDS011;22513;51.222;6.480;2022-07-29T00:17:37;3.28;;;1.50;;
36497;SDS011;22513;51.222;6.480;2022-07-29T00:20:03;4.13;;;1.77;;
36497;SDS011;22513;51.222;6.480;2022-07-29T00:22:29;6.03;;;1.48;;
36497;SDS011;22513;51.222;6.480;2022-07-29T00:24:55;6.15;;;1.75;;
36497;SDS011;22513;51.222;6.480;2022-07-29T00:27:20;2.60;;;1.30;;
36497;SDS011;22513;51.222;6.480;2022-07-29T00:29:46;3.85;;;1.60;;
36497;SDS011;22513;51.222;6.480;2022-07-29T00:32:12;5.88;;;1.63;;
36497;SDS011;22513;51.222;6.480;2022-07-29T00:34:38;2.97;;;1.65;;
36497;SDS011;22513;51.222;6.480;2022-07-29T00:37:22;5.57;;;1.75;;
36497;SDS011;22513;51.222;6.480;2022-07-29T00:39:48;9.48;;;1.58;;
36497;SDS011;22513;51.222;6.480;2022-07-29T00:42:14;6.45;;;1.90;;
36497;SDS011;22513;51.222;6.480;2022-07-29T00:44:40;2.72;;;1.65;;
36497;SDS011;22513;51.222;6.480;2022-07-29T00:47:06;4.00;;;1.45;;
36497;SDS011;22513;51.222;6.480;2022-07-29T00:49:33;4.85;;;1.40;;
36497;SDS011;22513;51.222;6.480;2022-07-29T00:52:06;4.78;;;1.98;;
36497;SDS011;22513;51.222;6.480;2022-07-29T00:54:33;3.15;;;1.58;;
36497;SDS011;22513;51.222;6.480;2022-07-29T00:57:00;5.28;;;1.77;;
36497;SDS011;22513;51.222;6.480;2022-07-29T00:59:27;4.78;;;1.92;;
36497;SDS011;22513;51.222;6.480;2022-07-29T01:01:53;8.68;;;2.25;;
36497;SDS011;22513;51.222;6.480;2022-07-29T01:04:20;3.10;;;1.67;;
36497;SDS011;22513;51.222;6.480;2022-07-29T01:06:47;3.03;;;1.58;;
36497;SDS011;22513;51.222;6.480;2022-07-29T01:09:16;7.22;;;1.95;;
36497;SDS011;22513;51.222;6.480;2022-07-29T01:11:43;4.57;;;1.60;;
36497;SDS011;22513;51.222;6.480;2022-07-29T01:14:11;4.78;;;1.60;;
36497;SDS011;22513;51.222;6.480;2022-07-29T01:16:45;2.50;;;1.40;;
36497;SDS011;22513;51.222;6.480;2022-07-29T01:19:23;3.67;;;1.35;;
36497;SDS011;22513;51.222;6.480;2022-07-29T01:22:10;4.75;;;1.45;;
36497;SDS011;22513;51.222;6.480;2022-07-29T01:30:29;5.97;;;1.60;;
36497;SDS011;22513;51.222;6.480;2022-07-29T01:32:58;6.32;;;1.98;;
36497;SDS011;22513;51.222;6.480;2022-07-29T01:35:33;4.78;;;1.65;;
36497;SDS011;22513;51.222;6.480;2022-07-29T01:43:39;5.35;;;1.73;;
36497;SDS011;22513;51.222;6.480;2022-07-29T01:46:34;6.82;;;1.88;;
36497;SDS011;22513;51.222;6.480;2022-07-29T01:49:08;5.03;;;1.60;;
36497;SDS011;22513;51.222;6.480;2022-07-29T01:51:43;4.95;;;1.83;;
36497;SDS011;22513;51.222;6.480;2022-07-29T01:56:47;6.07;;;2.17;;
36497;SDS011;22513;51.222;6.480;2022-07-29T01:59:16;2.95;;;1.70;;
36497;SDS011;22513;51.222;6.480;2022-07-29T02:01:43;3.90;;;1.58;;
36497;SDS011;22513;51.222;6.480;2022-07-29T02:04:13;3.72;;;1.55;;
36497;SDS011;22513;51.222;6.480;2022-07-29T02:06:41;5.15;;;1.98;;
36497;SDS011;22513;51.222;6.480;2022-07-29T02:09:08;6.40;;;2.30;;
36497;SDS011;22513;51.222;6.480;2022-07-29T02:11:36;2.63;;;1.25;;
36497;SDS011;22513;51.222;6.480;2022-07-29T02:14:04;3.05;;;1.50;;
36497;SDS011;22513;51.222;6.480;2022-07-29T02:16:32;5.00;;;1.85;;
36497;SDS011;22513;51.222;6.480;2022-07-29T02:19:01;4.55;;;1.55;;
36497;SDS011;22513;51.222;6.480;2022-07-29T02:21:27;1.05;;;0.73;;
36497;SDS011;22513;51.222;6.480;2022-07-29T02:23:55;3.72;;;1.50;;
36497;SDS011;22513;51.222;6.480;2022-07-29T02:26:25;5.13;;;1.70;;
36497;SDS011;22513;51.222;6.480;2022-07-29T02:28:55;4.20;;;1.52;;
36497;SDS011;22513;51.222;6.480;2022-07-29T02:31:22;4.03;;;1.23;;
36497;SDS011;22513;51.222;6.480;2022-07-29T02:33:52;1.30;;;1.00;;
36497;SDS011;22513;51.222;6.480;2022-07-29T02:36:18;2.97;;;1.30;;
36497;SDS011;22513;51.222;6.480;2022-07-29T02:38:47;4.93;;;1.30;;
36497;SDS011;22513;51.222;6.480;2022-07-29T02:41:27;1.75;;;1.60;;
36497;SDS011;22513;51.222;6.480;2022-07-29T02:43:56;5.45;;;1.42;;
36497;SDS011;22513;51.222;6.480;2022-07-29T02:46:30;7.43;;;1.70;;
36497;SDS011;22513;51.222;6.480;2022-07-29T02:49:47;2.88;;;1.42;;
36497;SDS011;22513;51.222;6.480;2022-07-29T02:52:02;3.83;;;1.23;;
36497;SDS011;22513;51.222;6.480;2022-07-29T02:57:43;7.68;;;2.05;;
36497;SDS011;22513;51.222;6.480;2022-07-29T03:00:09;9.48;;;3.65;;
36497;SDS011;22513;51.222;6.480;2022-07-29T03:02:37;9.30;;;2.80;;
36497;SDS011;22513;51.222;6.480;2022-07-29T03:05:06;11.52;;;3.13;;
36497;SDS011;22513;51.222;6.480;2022-07-29T03:07:36;5.88;;;2.88;;
36497;SDS011;22513;51.222;6.480;2022-07-29T03:10:03;5.50;;;2.50;;
36497;SDS011;22513;51.222;6.480;2022-07-29T03:12:31;6.20;;;2.10;;
36497;SDS011;22513;51.222;6.480;2022-07-29T03:14:57;4.15;;;1.73;;
36497;SDS011;22513;51.222;6.480;2022-07-29T03:17:25;6.07;;;2.03;;
36497;SDS011;22513;51.222;6.480;2022-07-29T03:19:51;9.00;;;2.22;;
36497;SDS011;22513;51.222;6.480;2022-07-29T03:22:17;6.07;;;2.97;;
36497;SDS011;22513;51.222;6.480;2022-07-29T03:24:43;10.32;;;2.95;;
36497;SDS011;22513;51.222;6.480;2022-07-29T03:27:09;13.45;;;2.67;;
36497;SDS011;22513;51.222;6.480;2022-07-29T03:29:34;8.32;;;2.60;;
36497;SDS011;22513;51.222;6.480;2022-07-29T03:32:01;5.43;;;2.60;;
36497;SDS011;22513;51.222;6.480;2022-07-29T03:34:28;8.80;;;3.50;;
36497;SDS011;22513;51.222;6.480;2022-07-29T03:36:54;2.78;;;2.30;;
36497;SDS011;22513;51.222;6.480;2022-07-29T03:39:21;4.30;;;2.72;;
36497;SDS011;22513;51.222;6.480;2022-07-29T03:41:49;6.53;;;3.28;;
36497;SDS011;22513;51.222;6.480;2022-07-29T03:44:21;4.13;;;2.75;;
36497;SDS011;22513;51.222;6.480;2022-07-29T03:46:48;5.47;;;2.88;;
36497;SDS011;22513;51.222;6.480;2022-07-29T03:49:16;3.97;;;2.75;;
36497;SDS011;22513;51.222;6.480;2022-07-29T03:51:43;4.97;;;3.10;;
36497;SDS011;22513;51.222;6.480;2022-07-29T03:54:09;3.95;;;2.10;;
36497;SDS011;22513;51.222;6.480;2022-07-29T03:56:38;5.95;;;3.13;;
36497;SDS011;22513;51.222;6.480;2022-07-29T03:59:06;7.75;;;3.47;;
36497;SDS011;22513;51.222;6.480;2022-07-29T04:01:33;3.85;;;2.78;;
36497;SDS011;22513;51.222;6.480;2022-07-29T04:04:00;7.38;;;3.88;;
36497;SDS011;22513;51.222;6.480;2022-07-29T04:06:27;9.30;;;3.17;;
36497;SDS011;22513;51.222;6.480;2022-07-29T04:08:52;6.50;;;3.72;;
36497;SDS011;22513;51.222;6.480;2022-07-29T04:11:18;7.22;;;3.80;;
36497;SDS011;22513;51.222;6.480;2022-07-29T04:13:44;7.10;;;3.17;;
36497;SDS011;22513;51.222;6.480;2022-07-29T04:16:10;7.25;;;3.85;;
36497;SDS011;22513;51.222;6.480;2022-07-29T04:18:35;9.35;;;3.35;;
36497;SDS011;22513;51.222;6.480;2022-07-29T04:21:01;7.60;;;3.75;;
36497;SDS011;22513;51.222;6.480;2022-07-29T04:23:31;6.40;;;3.90;;
36497;SDS011;22513;51.222;6.480;2022-07-29T04:25:59;9.63;;;4.53;;
36497;SDS011;22513;51.222;6.480;2022-07-29T04:28:26;6.05;;;3.60;;
36497;SDS011;22513;51.222;6.480;2022-07-29T04:30:51;6.63;;;3.70;;
36497;SDS011;22513;51.222;6.480;2022-07-29T04:33:17;8.77;;;4.25;;
36497;SDS011;22513;51.222;6.480;2022-07-29T04:35:42;9.43;;;3.95;;
36497;SDS011;22513;51.222;6.480;2022-07-29T04:38:08;8.75;;;4.18;;
36497;SDS011;22513;51.222;6.480;2022-07-29T04:40:34;9.45;;;4.88;;
36497;SDS011;22513;51.222;6.480;2022-07-29T04:43:00;8.48;;;4.25;;
36497;SDS011;22513;51.222;6.480;2022-07-29T04:45:26;8.68;;;5.10;;
36497;SDS011;22513;51.222;6.480;2022-07-29T04:47:53;10.98;;;5.15;;
36497;SDS011;22513;51.222;6.480;2022-07-29T04:50:19;14.57;;;5.30;;
36497;SDS011;22513;51.222;6.480;2022-07-29T04:52:44;9.95;;;5.50;;
36497;SDS011;22513;51.222;6.480;2022-07-29T04:55:10;8.88;;;5.45;;
36497;SDS011;22513;51.222;6.480;2022-07-29T04:57:35;13.13;;;6.28;;
36497;SDS011;22513;51.222;6.480;2022-07-29T05:00:02;9.98;;;5.55;;
36497;SDS011;22513;51.222;6.480;2022-07-29T05:02:29;8.10;;;5.65;;
36497;SDS011;22513;51.222;6.480;2022-07-29T05:04:54;8.18;;;5.72;;
36497;SDS011;22513;51.222;6.480;2022-07-29T05:07:20;11.63;;;5.93;;
36497;SDS011;22513;51.222;6.480;2022-07-29T05:09:45;14.35;;;6.47;;
36497;SDS011;22513;51.222;6.480;2022-07-29T05:12:11;13.65;;;5.95;;
36497;SDS011;22513;51.222;6.480;2022-07-29T05:14:37;12.35;;;6.07;;
36497;SDS011;22513;51.222;6.480;2022-07-29T05:17:02;13.70;;;6.10;;
36497;SDS011;22513;51.222;6.480;2022-07-29T05:19:28;11.75;;;6.10;;
36497;SDS011;22513;51.222;6.480;2022-07-29T05:21:54;10.90;;;5.50;;
36497;SDS011;22513;51.222;6.480;2022-07-29T05:24:19;7.65;;;5.50;;
36497;SDS011;22513;51.222;6.480;2022-07-29T05:26:45;9.45;;;5.05;;
36497;SDS011;22513;51.222;6.480;2022-07-29T05:29:11;10.07;;;5.53;;
36497;SDS011;22513;51.222;6.480;2022-07-29T05:31:36;11.48;;;5.25;;
36497;SDS011;22513;51.222;6.480;2022-07-29T05:34:02;8.10;;;4.80;;
36497;SDS011;22513;51.222;6.480;2022-07-29T05:36:27;9.93;;;4.95;;
36497;SDS011;22513;51.222;6.480;2022-07-29T05:38:53;9.05;;;5.43;;
36497;SDS011;22513;51.222;6.480;2022-07-29T05:41:19;10.05;;;5.63;;
36497;SDS011;22513;51.222;6.480;2022-07-29T05:43:45;12.15;;;5.45;;
36497;SDS011;22513;51.222;6.480;2022-07-29T05:46:10;10.48;;;5.82;;
36497;SDS011;22513;51.222;6.480;2022-07-29T05:48:36;11.88;;;5.60;;
36497;SDS011;22513;51.222;6.480;2022-07-29T05:51:02;13.73;;;5.03;;
36497;SDS011;22513;51.222;6.480;2022-07-29T05:53:28;7.60;;;4.55;;
36497;SDS011;22513;51.222;6.480;2022-07-29T05:55:53;14.82;;;5.50;;
36497;SDS011;22513;51.222;6.480;2022-07-29T05:58:19;9.98;;;5.40;;
36497;SDS011;22513;51.222;6.480;2022-07-29T06:00:45;14.02;;;6.18;;
36497;SDS011;22513;51.222;6.480;2022-07-29T06:03:11;8.18;;;5.70;;
36497;SDS011;22513;51.222;6.480;2022-07-29T06:05:37;14.52;;;5.90;;
36497;SDS011;22513;51.222;6.480;2022-07-29T06:08:03;8.02;;;5.95;;
36497;SDS011;22513;51.222;6.480;2022-07-29T06:10:31;10.43;;;6.90;;
36497;SDS011;22513;51.222;6.480;2022-07-29T06:12:57;8.30;;;5.53;;
36497;SDS011;22513;51.222;6.480;2022-07-29T06:15:23;8.10;;;5.85;;
36497;SDS011;22513;51.222;6.480;2022-07-29T06:17:49;13.02;;;6.00;;
36497;SDS011;22513;51.222;6.480;2022-07-29T06:20:14;12.15;;;6.20;;
36497;SDS011;22513;51.222;6.480;2022-07-29T06:22:40;9.70;;;6.28;;
36497;SDS011;22513;51.222;6.480;2022-07-29T06:25:05;10.77;;;6.32;;
36497;SDS011;22513;51.222;6.480;2022-07-29T06:27:31;7.97;;;5.80;;
36497;SDS011;22513;51.222;6.480;2022-07-29T06:29:57;11.70;;;6.03;;
36497;SDS011;22513;51.222;6.480;2022-07-29T06:32:23;9.95;;;5.82;;
36497;SDS011;22513;51.222;6.480;2022-07-29T06:34:48;10.60;;;6.03;;
36497;SDS011;22513;51.222;6.480;2022-07-29T06:37:14;10.88;;;6.30;;
36497;SDS011;22513;51.222;6.480;2022-07-29T06:39:40;12.55;;;5.30;;
36497;SDS011;22513;51.222;6.480;2022-07-29T06:42:06;13.15;;;6.00;;
36497;SDS011;22513;51.222;6.480;2022-07-29T06:44:32;10.50;;;5.65;;
36497;SDS011;22513;51.222;6.480;2022-07-29T06:47:00;15.57;;;6.78;;
36497;SDS011;22513;51.222;6.480;2022-07-29T06:49:26;9.25;;;5.65;;
36497;SDS011;22513;51.222;6.480;2022-07-29T06:51:52;13.27;;;6.05;;
36497;SDS011;22513;51.222;6.480;2022-07-29T06:54:19;9.30;;;5.18;;
36497;SDS011;22513;51.222;6.480;2022-07-29T06:56:44;12.50;;;5.32;;
36497;SDS011;22513;51.222;6.480;2022-07-29T06:59:11;12.90;;;5.72;;
36497;SDS011;22513;51.222;6.480;2022-07-29T07:01:38;12.93;;;5.75;;
36497;SDS011;22513;51.222;6.480;2022-07-29T07:04:06;16.15;;;6.53;;
36497;SDS011;22513;51.222;6.480;2022-07-29T07:06:33;11.23;;;6.25;;
36497;SDS011;22513;51.222;6.480;2022-07-29T07:08:59;19.67;;;7.35;;
36497;SDS011;22513;51.222;6.480;2022-07-29T07:11:25;11.45;;;6.18;;
36497;SDS011;22513;51.222;6.480;2022-07-29T07:13:50;22.35;;;7.43;;
36497;SDS011;22513;51.222;6.480;2022-07-29T07:16:16;16.15;;;7.43;;
36497;SDS011;22513;51.222;6.480;2022-07-29T07:18:41;14.98;;;7.90;;
36497;SDS011;22513;51.222;6.480;2022-07-29T07:21:09;12.07;;;6.43;;
36497;SDS011;22513;51.222;6.480;2022-07-29T07:23:35;14.63;;;7.60;;
36497;SDS011;22513;51.222;6.480;2022-07-29T07:26:01;17.02;;;8.18;;
36497;SDS011;22513;51.222;6.480;2022-07-29T07:28:28;12.38;;;7.72;;
36497;SDS011;22513;51.222;6.480;2022-07-29T07:30:54;15.77;;;8.10;;
36497;SDS011;22513;51.222;6.480;2022-07-29T07:33:19;13.23;;;7.45;;
36497;SDS011;22513;51.222;6.480;2022-07-29T07:55:58;12.77;;;6.05;;
36497;SDS011;22513;51.222;6.480;2022-07-29T07:58:42;11.38;;;6.57;;
36497;SDS011;22513;51.222;6.480;2022-07-29T08:01:08;9.75;;;5.90;;
36497;SDS011;22513;51.222;6.480;2022-07-29T08:03:34;13.65;;;6.35;;
36497;SDS011;22513;51.222;6.480;2022-07-29T08:06:04;7.63;;;5.18;;
36497;SDS011;22513;51.222;6.480;2022-07-29T08:08:30;11.38;;;6.30;;
36497;SDS011;22513;51.222;6.480;2022-07-29T08:10:56;11.20;;;5.20;;
36497;SDS011;22513;51.222;6.480;2022-07-29T08:13:22;13.65;;;5.88;;
36497;SDS011;22513;51.222;6.480;2022-07-29T08:15:50;12.05;;;5.45;;
36497;SDS011;22513;51.222;6.480;2022-07-29T08:18:27;8.90;;;5.40;;
36497;SDS011;22513;51.222;6.480;2022-07-29T08:20:53;9.18;;;4.07;;
36497;SDS011;22513;51.222;6.480;2022-07-29T08:23:20;7.95;;;5.07;;
36497;SDS011;22513;51.222;6.480;2022-07-29T08:25:47;9.70;;;5.45;;
36497;SDS011;22513;51.222;6.480;2022-07-29T08:28:13;9.63;;;4.68;;
36497;SDS011;22513;51.222;6.480;2022-07-29T08:30:39;14.82;;;4.93;;
36497;SDS011;22513;51.222;6.480;2022-07-29T08:33:05;9.27;;;4.60;;
36497;SDS011;22513;51.222;6.480;2022-07-29T08:35:31;8.27;;;4.68;;
36497;SDS011;22513;51.222;6.480;2022-07-29T08:37:56;8.95;;;5.13;;
36497;SDS011;22513;51.222;6.480;2022-07-29T08:40:23;8.55;;;5.00;;
36497;SDS011;22513;51.222;6.480;2022-07-29T08:42:49;9.80;;;5.43;;
36497;SDS011;22513;51.222;6.480;2022-07-29T08:45:15;9.85;;;5.38;;
36497;SDS011;22513;51.222;6.480;2022-07-29T08:47:41;12.10;;;5.72;;
36497;SDS011;22513;51.222;6.480;2022-07-29T08:50:11;10.15;;;5.85;;
36497;SDS011;22513;51.222;6.480;2022-07-29T08:52:38;10.82;;;6.60;;
36497;SDS011;22513;51.222;6.480;2022-07-29T08:55:06;10.07;;;6.53;;
36497;SDS011;22513;51.222;6.480;2022-07-29T08:57:33;11.70;;;7.20;;
36497;SDS011;22513;51.222;6.480;2022-07-29T09:00:46;10.68;;;6.70;;
36497;SDS011;22513;51.222;6.480;2022-07-29T09:03:14;9.95;;;6.55;;
36497;SDS011;22513;51.222;6.480;2022-07-29T09:08:47;13.50;;;7.85;;
36497;SDS011;22513;51.222;6.480;2022-07-29T09:11:32;10.50;;;6.38;;
36497;SDS011;22513;51.222;6.480;2022-07-29T09:13:58;17.08;;;7.57;;
36497;SDS011;22513;51.222;6.480;2022-07-29T09:16:23;10.38;;;7.70;;
36497;SDS011;22513;51.222;6.480;2022-07-29T09:18:49;9.90;;;7.32;;
36497;SDS011;22513;51.222;6.480;2022-07-29T09:21:16;12.75;;;9.13;;
36497;SDS011;22513;51.222;6.480;2022-07-29T09:26:32;10.90;;;7.25;;
36497;SDS011;22513;51.222;6.480;2022-07-29T09:31:57;11.40;;;6.90;;
36497;SDS011;22513;51.222;6.480;2022-07-29T09:36:50;12.57;;;7.57;;
36497;SDS011;22513;51.222;6.480;2022-07-29T09:39:27;8.82;;;6.35;;
36497;SDS011;22513;51.222;6.480;2022-07-29T09:42:03;13.48;;;6.43;;
36497;SDS011;22513;51.222;6.480;2022-07-29T09:44:40;11.27;;;6.20;;
36497;SDS011;22513;51.222;6.480;2022-07-29T09:47:16;14.52;;;6.70;;
36497;SDS011;22513;51.222;6.480;2022-07-29T09:49:55;11.05;;;6.30;;
36497;SDS011;22513;51.222;6.480;2022-07-29T09:52:23;8.38;;;5.88;;
36497;SDS011;22513;51.222;6.480;2022-07-29T09:54:49;7.43;;;5.13;;
36497;SDS011;22513;51.222;6.480;2022-07-29T09:57:22;10.65;;;6.35;;
36497;SDS011;22513;51.222;6.480;2022-07-29T10:00:11;12.95;;;6.63;;
36497;SDS011;22513;51.222;6.480;2022-07-29T10:02:37;10.80;;;6.03;;
36497;SDS011;22513;51.222;6.480;2022-07-29T10:05:06;9.23;;;6.20;;
36497;SDS011;22513;51.222;6.480;2022-07-29T10:07:43;14.27;;;7.40;;
36497;SDS011;22513;51.222;6.480;2022-07-29T10:10:09;6.65;;;5.40;;
36497;SDS011;22513;51.222;6.480;2022-07-29T10:12:35;9.93;;;5.80;;
36497;SDS011;22513;51.222;6.480;2022-07-29T10:15:17;10.48;;;5.30;;
36497;SDS011;22513;51.222;6.480;2022-07-29T10:17:43;12.00;;;5.82;;
36497;SDS011;22513;51.222;6.480;2022-07-29T10:20:10;11.77;;;6.65;;
36497;SDS011;22513;51.222;6.480;2022-07-29T10:22:36;10.10;;;5.60;;
36497;SDS011;22513;51.222;6.480;2022-07-29T10:25:02;8.18;;;5.25;;
36497;SDS011;22513;51.222;6.480;2022-07-29T10:27:28;13.85;;;5.70;;
36497;SDS011;22513;51.222;6.480;2022-07-29T10:29:54;9.27;;;5.35;;
36497;SDS011;22513;51.222;6.480;2022-07-29T10:40:28;10.35;;;5.10;;
36497;SDS011;22513;51.222;6.480;2022-07-29T10:43:21;8.05;;;4.63;;
36497;SDS011;22513;51.222;6.480;2022-07-29T10:45:56;10.25;;;4.35;;
36497;SDS011;22513;51.222;6.480;2022-07-29T10:48:24;7.22;;;3.78;;
36497;SDS011;22513;51.222;6.480;2022-07-29T10:50:57;6.35;;;4.00;;
36497;SDS011;22513;51.222;6.480;2022-07-29T10:53:45;7.65;;;4.03;;
36497;SDS011;22513;51.222;6.480;2022-07-29T10:56:25;9.10;;;4.13;;
36497;SDS011;22513;51.222;6.480;2022-07-29T11:01:43;6.90;;;4.40;;
36497;SDS011;22513;51.222;6.480;2022-07-29T11:04:08;12.63;;;4.13;;
36497;SDS011;22513;51.222;6.480;2022-07-29T11:07:17;7.50;;;3.83;;
36497;SDS011;22513;51.222;6.480;2022-07-29T11:09:23;8.90;;;4.00;;
36497;SDS011;22513;51.222;6.480;2022-07-29T11:11:49;6.32;;;4.07;;
36497;SDS011;22513;51.222;6.480;2022-07-29T11:14:15;10.07;;;4.13;;
36497;SDS011;22513;51.222;6.480;2022-07-29T11:16:58;8.20;;;4.57;;
36497;SDS011;22513;51.222;6.480;2022-07-29T11:19:27;10.43;;;4.95;;
36497;SDS011;22513;51.222;6.480;2022-07-29T11:21:53;6.95;;;4.28;;
36497;SDS011;22513;51.222;6.480;2022-07-29T11:29:52;9.07;;;4.65;;
36497;SDS011;22513;51.222;6.480;2022-07-29T11:32:22;8.18;;;5.18;;
36497;SDS011;22513;51.222;6.480;2022-07-29T11:34:50;8.68;;;4.82;;
36497;SDS011;22513;51.222;6.480;2022-07-29T11:37:36;10.88;;;4.75;;
36497;SDS011;22513;51.222;6.480;2022-07-29T11:45:00;7.80;;;5.05;;
36497;SDS011;22513;51.222;6.480;2022-07-29T11:47:31;9.63;;;4.50;;
36497;SDS011;22513;51.222;6.480;2022-07-29T11:50:00;11.68;;;4.50;;
36497;SDS011;22513;51.222;6.480;2022-07-29T11:52:44;11.13;;;4.07;;
36497;SDS011;22513;51.222;6.480;2022-07-29T11:55:17;8.95;;;3.88;;
36497;SDS011;22513;51.222;6.480;2022-07-29T12:02:52;7.85;;;4.25;;
36497;SDS011;22513;51.222;6.480;2022-07-29T12:05:18;9.40;;;3.85;;
36497;SDS011;22513;51.222;6.480;2022-07-29T12:07:45;8.35;;;4.30;;
36497;SDS011;22513;51.222;6.480;2022-07-29T12:10:12;7.78;;;4.05;;
36497;SDS011;22513;51.222;6.480;2022-07-29T12:12:38;6.78;;;3.70;;
36497;SDS011;22513;51.222;6.480;2022-07-29T12:15:13;10.38;;;3.78;;
36497;SDS011;22513;51.222;6.480;2022-07-29T12:17:42;7.95;;;3.78;;
36497;SDS011;22513;51.222;6.480;2022-07-29T12:20:08;6.25;;;3.63;;
36497;SDS011;22513;51.222;6.480;2022-07-29T12:22:36;7.00;;;3.35;;
36497;SDS011;22513;51.222;6.480;2022-07-29T12:25:05;5.20;;;3.63;;
36497;SDS011;22513;51.222;6.480;2022-07-29T12:27:35;6.65;;;3.10;;
36497;SDS011;22513;51.222;6.480;2022-07-29T12:30:05;7.97;;;3.42;;
36497;SDS011;22513;51.222;6.480;2022-07-29T12:32:36;5.63;;;3.67;;
36497;SDS011;22513;51.222;6.480;2022-07-29T12:35:20;7.20;;;3.58;;
36497;SDS011;22513;51.222;6.480;2022-07-29T12:37:46;9.93;;;3.97;;
36497;SDS011;22513;51.222;6.480;2022-07-29T12:40:14;8.30;;;3.17;;
36497;SDS011;22513;51.222;6.480;2022-07-29T12:45:36;6.00;;;3.50;;
36497;SDS011;22513;51.222;6.480;2022-07-29T12:48:03;7.50;;;4.07;;
36497;SDS011;22513;51.222;6.480;2022-07-29T12:50:29;6.10;;;3.40;;
36497;SDS011;22513;51.222;6.480;2022-07-29T12:53:07;4.60;;;3.55;;
36497;SDS011;22513;51.222;6.480;2022-07-29T12:55:38;6.95;;;3.88;;
36497;SDS011;22513;51.222;6.480;2022-07-29T12:58:04;7.45;;;4.00;;
36497;SDS011;22513;51.222;6.480;2022-07-29T13:00:29;7.47;;;3.67;;
36497;SDS011;22513;51.222;6.480;2022-07-29T13:02:56;6.13;;;3.53;;
36497;SDS011;22513;51.222;6.480;2022-07-29T13:05:23;5.70;;;3.97;;
36497;SDS011;22513;51.222;6.480;2022-07-29T13:07:50;5.25;;;3.67;;
36497;SDS011;22513;51.222;6.480;2022-07-29T13:15:38;8.13;;;3.78;;
36497;SDS011;22513;51.222;6.480;2022-07-29T13:20:53;5.40;;;3.38;;
36497;SDS011;22513;51.222;6.480;2022-07-29T13:23:19;6.03;;;3.80;;
36497;SDS011;22513;51.222;6.480;2022-07-29T13:25:45;6.85;;;3.17;;
36497;SDS011;22513;51.222;6.480;2022-07-29T13:28:10;6.47;;;3.05;;
36497;SDS011;22513;51.222;6.480;2022-07-29T13:30:36;5.45;;;3.13;;
36497;SDS011;22513;51.222;6.480;2022-07-29T13:33:04;4.13;;;2.80;;
36497;SDS011;22513;51.222;6.480;2022-07-29T13:35:29;5.10;;;2.95;;
36497;SDS011;22513;51.222;6.480;2022-07-29T13:37:55;6.70;;;3.45;;
36497;SDS011;22513;51.222;6.480;2022-07-29T13:40:20;4.63;;;2.90;;
36497;SDS011;22513;51.222;6.480;2022-07-29T13:42:46;7.72;;;3.35;;
36497;SDS011;22513;51.222;6.480;2022-07-29T13:45:12;6.38;;;2.20;;
36497;SDS011;22513;51.222;6.480;2022-07-29T13:47:38;6.78;;;3.35;;
36497;SDS011;22513;51.222;6.480;2022-07-29T13:50:04;7.47;;;2.42;;
36497;SDS011;22513;51.222;6.480;2022-07-29T13:52:32;3.53;;;2.22;;
36497;SDS011;22513;51.222;6.480;2022-07-29T13:54:58;6.57;;;2.40;;
36497;SDS011;22513;51.222;6.480;2022-07-29T13:57:24;5.13;;;2.10;;
36497;SDS011;22513;51.222;6.480;2022-07-29T13:59:49;4.18;;;2.63;;
36497;SDS011;22513;51.222;6.480;2022-07-29T14:02:16;5.28;;;2.67;;
36497;SDS011;22513;51.222;6.480;2022-07-29T14:04:42;4.28;;;2.00;;
36497;SDS011;22513;51.222;6.480;2022-07-29T14:07:08;7.43;;;2.10;;
36497;SDS011;22513;51.222;6.480;2022-07-29T14:09:35;4.20;;;1.77;;
36497;SDS011;22513;51.222;6.480;2022-07-29T14:12:00;1.70;;;1.42;;
36497;SDS011;22513;51.222;6.480;2022-07-29T14:14:27;3.28;;;1.98;;
36497;SDS011;22513;51.222;6.480;2022-07-29T14:16:53;2.63;;;1.98;;
36497;SDS011;22513;51.222;6.480;2022-07-29T14:19:19;3.53;;;2.33;;
36497;SDS011;22513;51.222;6.480;2022-07-29T14:21:45;3.70;;;1.95;;
36497;SDS011;22513;51.222;6.480;2022-07-29T14:24:10;4.55;;;2.15;;
36497;SDS011;22513;51.222;6.480;2022-07-29T14:26:36;3.97;;;2.63;;
36497;SDS011;22513;51.222;6.480;2022-07-29T14:29:02;3.65;;;2.10;;
36497;SDS011;22513;51.222;6.480;2022-07-29T14:31:27;2.60;;;2.00;;
36497;SDS011;22513;51.222;6.480;2022-07-29T14:33:53;5.15;;;2.10;;
36497;SDS011;22513;51.222;6.480;2022-07-29T14:36:19;5.43;;;2.33;;
36497;SDS011;22513;51.222;6.480;2022-07-29T14:38:44;5.95;;;2.17;;
36497;SDS011;22513;51.222;6.480;2022-07-29T14:41:10;7.63;;;2.72;;
36497;SDS011;22513;51.222;6.480;2022-07-29T14:43:36;3.15;;;1.98;;
36497;SDS011;22513;51.222;6.480;2022-07-29T14:46:02;4.82;;;2.50;;
36497;SDS011;22513;51.222;6.480;2022-07-29T14:48:28;4.07;;;3.10;;
36497;SDS011;22513;51.222;6.480;2022-07-29T14:50:53;6.85;;;3.20;;
36497;SDS011;22513;51.222;6.480;2022-07-29T14:53:21;3.95;;;2.70;;
36497;SDS011;22513;51.222;6.480;2022-07-29T14:55:47;6.30;;;3.00;;
36497;SDS011;22513;51.222;6.480;2022-07-29T14:58:13;4.25;;;2.33;;
36497;SDS011;22513;51.222;6.480;2022-07-29T15:00:39;6.68;;;3.22;;
36497;SDS011;22513;51.222;6.480;2022-07-29T15:03:04;5.70;;;3.40;;
36497;SDS011;22513;51.222;6.480;2022-07-29T15:05:31;4.20;;;3.22;;
36497;SDS011;22513;51.222;6.480;2022-07-29T15:07:57;4.93;;;3.50;;
36497;SDS011;22513;51.222;6.480;2022-07-29T15:10:23;5.03;;;3.95;;
36497;SDS011;22513;51.222;6.480;2022-07-29T15:12:51;7.65;;;3.22;;
36497;SDS011;22513;51.222;6.480;2022-07-29T15:15:17;11.52;;;3.25;;
36497;SDS011;22513;51.222;6.480;2022-07-29T15:17:43;6.07;;;3.17;;
36497;SDS011;22513;51.222;6.480;2022-07-29T15:20:09;3.60;;;2.35;;
36497;SDS011;22513;51.222;6.480;2022-07-29T15:22:36;4.95;;;3.00;;
36497;SDS011;22513;51.222;6.480;2022-07-29T15:25:03;4.47;;;2.50;;
36497;SDS011;22513;51.222;6.480;2022-07-29T15:27:29;3.75;;;2.78;;
36497;SDS011;22513;51.222;6.480;2022-07-29T15:29:55;4.55;;;2.58;;
36497;SDS011;22513;51.222;6.480;2022-07-29T15:32:21;3.38;;;2.28;;
36497;SDS011;22513;51.222;6.480;2022-07-29T15:34:46;5.47;;;2.38;;
36497;SDS011;22513;51.222;6.480;2022-07-29T15:37:12;3.85;;;2.30;;
36497;SDS011;22513;51.222;6.480;2022-07-29T15:39:38;4.10;;;2.20;;
36497;SDS011;22513;51.222;6.480;2022-07-29T15:42:03;7.45;;;2.33;;
36497;SDS011;22513;51.222;6.480;2022-07-29T15:44:29;3.13;;;1.95;;
36497;SDS011;22513;51.222;6.480;2022-07-29T15:46:55;4.90;;;2.58;;
36497;SDS011;22513;51.222;6.480;2022-07-29T15:52:00;2.00;;;1.65;;
36497;SDS011;22513;51.222;6.480;2022-07-29T15:54:28;4.55;;;2.65;;
36497;SDS011;22513;51.222;6.480;2022-07-29T15:56:54;5.05;;;2.58;;
36497;SDS011;22513;51.222;6.480;2022-07-29T15:59:20;5.45;;;2.72;;
36497;SDS011;22513;51.222;6.480;2022-07-29T16:01:46;3.67;;;2.33;;
36497;SDS011;22513;51.222;6.480;2022-07-29T16:04:12;4.72;;;2.60;;
36497;SDS011;22513;51.222;6.480;2022-07-29T16:06:38;3.42;;;2.67;;
36497;SDS011;22513;51.222;6.480;2022-07-29T16:09:04;3.53;;;2.20;;
36497;SDS011;22513;51.222;6.480;2022-07-29T16:11:30;2.45;;;1.70;;
36497;SDS011;22513;51.222;6.480;2022-07-29T16:13:55;6.13;;;2.00;;
36497;SDS011;22513;51.222;6.480;2022-07-29T16:16:22;2.47;;;1.98;;